Time;durP1;ratioP1;P1;durP2;ratioP2;P2;SDS_P1;SDS_P2;PMS_P1;PMS_P2;Temp;Humidity;BMP_temperature;BMP_pressure;BME280_temperature;BME280_humidity;BME280_pressure;Samples;Min_cycle;Max_cycle;Signal;HPM_P1;HPM_P2
2022/11/29 00:01:28;;;;;;;47.80;14.77;;;9.50;99.90;;;;;;5116715;28;20036;-87
2022/11/29 00:03:54;;;;;;;53.35;14.90;;;9.50;99.90;;;;;;5116220;28;20055;-87
2022/11/29 00:06:22;;;;;;;46.42;14.88;;;9.40;99.90;;;;;;5098883;28;20061;-87
2022/11/29 00:08:49;;;;;;;42.92;13.75;;;9.40;99.90;;;;;;5117005;28;20032;-86
2022/11/29 00:14:11;;;;;;;45.92;15.23;;;9.40;99.90;;;;;;5115864;28;20047;-86
2022/11/29 00:16:39;;;;;;;44.63;13.68;;;9.40;99.90;;;;;;5115944;28;20050;-87
2022/11/29 00:19:05;;;;;;;42.80;13.93;;;9.40;99.90;;;;;;5113116;28;20140;-87
2022/11/29 00:21:30;;;;;;;43.42;12.75;;;9.40;99.90;;;;;;5113266;28;20035;-86
2022/11/29 00:23:56;;;;;;;45.90;13.73;;;9.40;99.90;;;;;;5111674;28;20071;-86
2022/11/29 00:26:22;;;;;;;42.13;15.15;;;9.40;99.90;;;;;;5112457;28;20067;-86
2022/11/29 00:28:47;;;;;;;55.08;15.10;;;9.40;99.90;;;;;;5113012;28;20039;-87
2022/11/29 00:31:19;;;;;;;48.90;13.85;;;9.40;99.90;;;;;;5111771;28;20046;-86
2022/11/29 00:33:45;;;;;;;44.05;13.88;;;9.40;99.90;;;;;;5095198;28;20080;-86
2022/11/29 00:36:11;;;;;;;44.28;13.90;;;9.40;99.90;;;;;;5094996;28;20130;-87
2022/11/29 00:38:37;;;;;;;51.55;14.30;;;9.40;99.90;;;;;;5112101;28;20130;-86
2022/11/29 00:41:03;;;;;;;42.53;14.18;;;9.40;99.90;;;;;;5112460;28;20638;-86
2022/11/29 00:43:28;;;;;;;53.08;12.93;;;9.30;99.90;;;;;;5110924;28;20040;-86
2022/11/29 00:45:54;;;;;;;43.42;13.43;;;9.40;99.90;;;;;;5112431;28;20527;-87
2022/11/29 00:48:19;;;;;;;54.25;14.55;;;9.30;99.90;;;;;;5093868;28;20039;-87
2022/11/29 00:50:45;;;;;;;52.15;14.52;;;9.30;99.90;;;;;;5112302;28;20065;-87
2022/11/29 00:53:10;;;;;;;45.65;14.85;;;9.40;99.90;;;;;;5094854;28;20056;-86
2022/11/29 00:55:36;;;;;;;52.83;14.40;;;9.30;99.90;;;;;;5111653;28;20043;-87
2022/11/29 00:58:02;;;;;;;51.63;14.73;;;9.40;99.90;;;;;;5112214;28;20524;-87
2022/11/29 01:00:27;;;;;;;58.45;15.95;;;9.30;99.90;;;;;;5111226;28;20382;-87
2022/11/29 01:02:53;;;;;;;50.78;14.82;;;9.40;99.90;;;;;;5094601;28;20043;-87
2022/11/29 01:05:18;;;;;;;51.78;16.55;;;9.40;99.90;;;;;;5094937;28;20036;-87
2022/11/29 01:07:44;;;;;;;58.72;14.68;;;9.30;99.90;;;;;;5111224;28;20028;-86
2022/11/29 01:10:10;;;;;;;59.13;17.00;;;9.30;99.90;;;;;;5112068;28;20043;-87
2022/11/29 01:12:36;;;;;;;55.20;16.63;;;9.30;99.90;;;;;;5094922;28;20576;-87
2022/11/29 01:15:04;;;;;;;57.28;14.73;;;9.30;99.90;;;;;;5094424;28;20082;-86
2022/11/29 01:17:30;;;;;;;53.85;13.32;;;9.30;99.90;;;;;;5094876;28;20096;-85
2022/11/29 01:19:55;;;;;;;52.25;14.95;;;9.30;99.90;;;;;;5111625;28;20036;-85
2022/11/29 01:22:21;;;;;;;58.72;15.32;;;9.30;99.90;;;;;;5093964;28;20415;-85
2022/11/29 01:24:46;;;;;;;45.70;13.02;;;9.30;99.90;;;;;;5112084;28;20160;-85
2022/11/29 01:27:15;;;;;;;51.08;13.48;;;9.30;99.90;;;;;;5111084;28;20047;-85
2022/11/29 01:29:40;;;;;;;49.67;12.35;;;9.30;99.90;;;;;;5094722;28;20412;-85
2022/11/29 01:32:06;;;;;;;48.65;14.38;;;9.30;99.90;;;;;;5110778;28;20051;-85
2022/11/29 01:34:31;;;;;;;58.40;14.50;;;9.30;99.90;;;;;;5111214;28;20039;-85
2022/11/29 01:36:57;;;;;;;50.50;12.85;;;9.30;99.90;;;;;;5111349;28;20051;-85
2022/11/29 01:39:23;;;;;;;53.75;14.02;;;9.40;99.90;;;;;;5085592;28;20043;-85
2022/11/29 01:41:49;;;;;;;60.40;15.48;;;9.40;99.90;;;;;;5094544;28;20032;-85
2022/11/29 01:44:14;;;;;;;51.63;13.13;;;9.40;99.90;;;;;;5093512;28;20130;-85
2022/11/29 01:46:42;;;;;;;49.42;14.65;;;9.30;99.90;;;;;;5094157;28;20039;-85
2022/11/29 01:49:31;;;;;;;51.08;13.80;;;9.30;99.90;;;;;;5111247;28;20044;-85
2022/11/29 01:52:13;;;;;;;51.30;13.45;;;9.40;99.90;;;;;;5079879;28;20050;-85
2022/11/29 01:54:47;;;;;;;44.83;13.80;;;9.40;99.90;;;;;;5110838;28;20504;-85
2022/11/29 01:57:13;;;;;;;54.35;12.63;;;9.40;99.90;;;;;;5093281;28;20519;-85
2022/11/29 01:59:45;;;;;;;51.35;13.38;;;9.40;99.90;;;;;;5111482;28;20032;-85
2022/11/29 02:02:13;;;;;;;51.58;14.05;;;9.40;99.90;;;;;;5110879;28;20531;-85
2022/11/29 02:04:43;;;;;;;61.47;13.85;;;9.40;99.90;;;;;;5092982;28;20386;-85
2022/11/29 02:07:09;;;;;;;57.72;14.02;;;9.40;99.90;;;;;;5111248;28;20431;-85
2022/11/29 02:09:34;;;;;;;50.67;13.75;;;9.40;99.90;;;;;;5106698;28;20097;-85
2022/11/29 02:12:18;;;;;;;51.78;14.23;;;9.40;99.90;;;;;;5090341;28;20062;-85
2022/11/29 02:14:56;;;;;;;65.32;14.27;;;9.40;99.90;;;;;;5092176;28;20036;-85
2022/11/29 02:17:40;;;;;;;61.75;15.48;;;9.40;99.90;;;;;;5110765;28;20051;-85
2022/11/29 02:20:39;;;;;;;54.88;14.23;;;9.40;99.90;;;;;;5111463;28;20434;-85
2022/11/29 02:23:29;;;;;;;61.28;15.30;;;9.40;99.90;;;;;;5082209;28;20537;-85
2022/11/29 02:26:09;;;;;;;53.40;13.88;;;9.40;99.90;;;;;;5110873;28;20039;-85
2022/11/29 02:28:50;;;;;;;58.05;15.85;;;9.40;99.90;;;;;;5093231;28;20040;-85
2022/11/29 02:31:43;;;;;;;51.13;15.15;;;9.30;99.90;;;;;;5093791;28;20027;-85
2022/11/29 02:34:23;;;;;;;43.78;13.10;;;9.40;99.90;;;;;;5099105;28;20072;-85
2022/11/29 02:37:16;;;;;;;63.80;16.10;;;9.30;99.90;;;;;;5071082;28;20505;-85
2022/11/29 02:40:10;;;;;;;56.08;14.38;;;9.40;99.90;;;;;;5101646;28;20039;-85
2022/11/29 02:42:54;;;;;;;58.72;14.68;;;9.30;99.90;;;;;;5089551;28;20457;-85
2022/11/29 02:45:42;;;;;;;54.65;13.45;;;9.30;99.90;;;;;;5094172;28;20071;-85
2022/11/29 02:48:32;;;;;;;52.08;14.32;;;9.30;99.90;;;;;;5093559;28;20047;-85
2022/11/29 02:51:10;;;;;;;47.67;14.93;;;9.30;99.90;;;;;;5093060;28;20027;-85
2022/11/29 02:53:47;;;;;;;45.65;14.98;;;9.30;99.90;;;;;;5109496;28;20040;-85
2022/11/29 02:56:16;;;;;;;43.95;13.10;;;9.20;99.90;;;;;;5110177;28;20042;-85
2022/11/29 02:59:08;;;;;;;43.90;12.90;;;9.20;99.90;;;;;;5092472;28;20051;-85
2022/11/29 03:01:57;;;;;;;44.60;13.02;;;9.20;99.90;;;;;;5093563;28;20043;-85
2022/11/29 03:04:42;;;;;;;43.88;12.68;;;9.10;99.90;;;;;;5109141;28;20031;-85
2022/11/29 03:07:26;;;;;;;40.90;13.05;;;9.10;99.90;;;;;;5110730;28;20035;-85
2022/11/29 03:10:09;;;;;;;67.95;13.63;;;9.10;99.90;;;;;;5092349;28;20034;-85
2022/11/29 03:12:38;;;;;;;;;;;9.10;99.90;;;;;;5110240;28;20035;-85
2022/11/29 03:15:28;;;;;;;47.97;11.68;;;9.00;99.90;;;;;;5110269;28;19922;-85
2022/11/29 03:18:20;;;;;;;46.45;14.35;;;9.00;99.90;;;;;;5092457;28;20118;-85
2022/11/29 03:21:07;;;;;;;48.60;11.93;;;9.00;99.90;;;;;;5093435;28;20123;-85
2022/11/29 03:23:56;;;;;;;47.42;11.55;;;8.90;99.90;;;;;;5108632;28;20040;-85
2022/11/29 03:26:47;;;;;;;50.95;12.82;;;8.90;99.90;;;;;;5109716;28;20052;-85
2022/11/29 03:29:21;;;;;;;33.70;12.80;;;8.90;99.90;;;;;;5108729;28;20039;-85
2022/11/29 03:31:51;;;;;;;35.90;11.43;;;8.90;99.90;;;;;;5110117;28;20404;-84
2022/11/29 03:34:46;;;;;;;29.45;10.93;;;8.80;99.90;;;;;;5100698;28;20036;-84
2022/11/29 03:37:17;;;;;;;28.02;9.32;;;8.80;99.90;;;;;;5052181;28;20101;-85
2022/11/29 03:39:42;;;;;;;28.20;9.98;;;8.70;99.90;;;;;;5061920;28;20484;-85
2022/11/29 03:42:20;;;;;;;35.00;10.57;;;8.70;99.90;;;;;;5109599;28;20043;-85
2022/11/29 03:45:01;;;;;;;35.63;11.20;;;8.70;99.90;;;;;;5092471;28;20047;-85
2022/11/29 03:47:34;;;;;;;32.47;11.68;;;8.70;99.90;;;;;;5109696;28;20043;-85
2022/11/29 03:50:05;;;;;;;;;;;8.70;99.90;;;;;;5110467;28;20042;-85
2022/11/29 03:52:52;;;;;;;29.48;10.05;;;8.70;99.90;;;;;;5108583;28;19922;-85
2022/11/29 03:55:20;;;;;;;35.28;10.25;;;8.60;99.90;;;;;;5095697;28;20116;-85
2022/11/29 03:58:24;;;;;;;34.38;11.23;;;8.60;99.90;;;;;;5113153;28;20044;-85
2022/11/29 04:00:58;;;;;;;30.13;11.77;;;8.60;99.90;;;;;;5015296;28;20045;-85
2022/11/29 04:03:47;;;;;;;38.85;11.93;;;8.60;99.90;;;;;;5081190;28;20058;-85
2022/11/29 04:06:19;;;;;;;32.88;11.38;;;8.60;99.90;;;;;;5088547;28;20057;-85
2022/11/29 04:09:12;;;;;;;37.63;12.18;;;8.60;99.90;;;;;;5096340;28;20032;-85
2022/11/29 04:12:02;;;;;;;41.75;12.73;;;8.60;99.90;;;;;;5112622;28;20039;-85
2022/11/29 04:14:30;;;;;;;42.00;12.60;;;8.60;99.90;;;;;;5112682;28;20100;-85
2022/11/29 04:17:25;;;;;;;43.65;14.10;;;8.60;99.90;;;;;;5111642;28;20047;-85
2022/11/29 04:20:32;;;;;;;30.85;11.15;;;8.60;99.90;;;;;;5112873;28;20036;-85
2022/11/29 04:23:03;;;;;;;44.30;12.27;;;8.60;99.90;;;;;;5040236;28;20420;-85
2022/11/29 04:26:01;;;;;;;50.10;12.02;;;8.60;99.90;;;;;;5095701;28;20036;-85
2022/11/29 04:28:52;;;;;;;31.77;11.90;;;8.60;99.90;;;;;;5112375;28;20032;-85
2022/11/29 04:32:12;;;;;;;31.38;11.35;;;8.60;99.90;;;;;;5065454;28;20051;-85
2022/11/29 04:35:01;;;;;;;34.83;11.88;;;8.60;99.90;;;;;;4997474;28;20053;-85
2022/11/29 04:37:45;;;;;;;33.72;11.32;;;8.60;99.90;;;;;;5091401;28;20078;-87
2022/11/29 04:40:24;;;;;;;42.00;13.02;;;8.50;99.90;;;;;;5097717;28;20044;-87
2022/11/29 04:42:59;;;;;;;38.28;12.07;;;8.60;99.90;;;;;;5112303;28;20123;-88
2022/11/29 04:46:07;;;;;;;50.60;14.13;;;8.60;99.90;;;;;;5111971;28;20043;-87
2022/11/29 04:48:54;;;;;;;52.78;14.25;;;8.60;99.90;;;;;;5096758;28;20630;-87
2022/11/29 04:51:38;;;;;;;73.05;14.95;;;8.60;99.90;;;;;;5075504;28;20036;-87
2022/11/29 04:54:22;;;;;;;48.60;13.15;;;8.50;99.90;;;;;;5103570;28;20040;-87
2022/11/29 04:57:00;;;;;;;39.60;11.25;;;8.50;99.90;;;;;;5112457;28;20054;-87
2022/11/29 04:59:48;;;;;;;39.53;11.52;;;8.50;99.90;;;;;;5110806;28;20046;-87
2022/11/29 05:02:26;;;;;;;32.60;12.32;;;8.50;99.90;;;;;;5095203;28;20088;-87
2022/11/29 05:05:36;;;;;;;64.97;14.48;;;8.40;99.90;;;;;;5091900;28;20031;-87
2022/11/29 05:08:26;;;;;;;46.92;13.75;;;8.50;99.90;;;;;;5105468;28;20514;-87
2022/11/29 05:11:13;;;;;;;44.40;13.88;;;8.50;99.90;;;;;;5073879;28;20043;-87
2022/11/29 05:13:51;;;;;;;41.33;13.02;;;8.40;99.90;;;;;;5110838;28;20048;-87
2022/11/29 05:16:45;;;;;;;35.75;12.48;;;8.40;99.90;;;;;;5111750;28;20085;-87
2022/11/29 05:19:20;;;;;;;45.88;13.75;;;8.50;99.90;;;;;;5111045;28;20069;-87
2022/11/29 05:21:59;;;;;;;58.55;14.85;;;8.50;99.90;;;;;;5095207;28;20449;-87
2022/11/29 05:24:46;;;;;;;64.85;16.15;;;8.50;99.90;;;;;;5084665;28;20047;-87
2022/11/29 05:27:33;;;;;;;38.40;12.98;;;8.40;99.90;;;;;;5092112;28;20047;-87
2022/11/29 05:30:24;;;;;;;61.50;13.25;;;8.40;99.90;;;;;;5077572;28;20039;-87
2022/11/29 05:32:56;;;;;;;46.45;12.95;;;8.40;99.90;;;;;;5111644;28;20473;-87
2022/11/29 05:35:52;;;;;;;83.40;15.05;;;8.40;99.90;;;;;;5111275;28;20740;-87
2022/11/29 05:38:35;;;;;;;62.72;13.57;;;8.40;99.90;;;;;;5092772;28;20430;-87
2022/11/29 05:41:35;;;;;;;63.70;14.15;;;8.40;99.90;;;;;;5111450;28;20039;-87
2022/11/29 05:44:10;;;;;;;87.68;14.40;;;8.40;99.90;;;;;;5088593;28;20039;-87
2022/11/29 05:46:57;;;;;;;76.00;12.32;;;8.40;99.90;;;;;;5111325;28;20036;-87
2022/11/29 05:49:48;;;;;;;65.90;12.25;;;8.40;99.90;;;;;;5106498;28;20036;-87
2022/11/29 05:52:30;;;;;;;56.50;11.93;;;8.30;99.90;;;;;;5094290;28;20031;-87
2022/11/29 05:55:20;;;;;;;42.25;11.43;;;8.30;99.90;;;;;;5111680;28;20711;-87
2022/11/29 05:58:06;;;;;;;47.40;12.80;;;8.30;99.90;;;;;;5108649;28;20500;-87
2022/11/29 06:00:48;;;;;;;45.10;11.30;;;8.20;99.90;;;;;;5110852;28;20039;-87
2022/11/29 06:03:28;;;;;;;62.10;11.63;;;8.20;99.90;;;;;;5090070;28;20596;-87
2022/11/29 06:05:59;;;;;;;74.53;13.30;;;8.20;99.90;;;;;;5092485;28;20040;-87
2022/11/29 06:08:50;;;;;;;64.47;11.93;;;8.20;99.90;;;;;;5087896;28;20036;-87
2022/11/29 06:11:24;;;;;;;72.63;12.13;;;8.10;99.90;;;;;;5070259;28;20040;-87
2022/11/29 06:13:54;;;;;;;81.13;13.05;;;8.10;99.90;;;;;;5060416;28;20084;-85
2022/11/29 06:16:33;;;;;;;76.00;12.40;;;8.10;99.90;;;;;;5088211;28;20078;-85
2022/11/29 06:19:30;;;;;;;69.57;11.93;;;8.10;99.90;;;;;;5110519;28;20062;-85
2022/11/29 06:22:24;;;;;;;71.78;12.77;;;8.10;99.90;;;;;;5098831;28;20082;-85
2022/11/29 06:24:50;;;;;;;72.35;13.30;;;8.10;99.90;;;;;;5110750;28;20066;-84
2022/11/29 06:27:41;;;;;;;62.70;12.32;;;8.10;99.90;;;;;;5107375;28;20058;-85
2022/11/29 06:30:17;;;;;;;44.47;11.50;;;8.10;99.90;;;;;;5093839;28;20031;-85
2022/11/29 06:33:08;;;;;;;49.78;11.55;;;8.10;99.90;;;;;;5098716;28;20047;-85
2022/11/29 06:35:58;;;;;;;52.92;10.95;;;8.10;99.90;;;;;;5089386;28;20047;-85
2022/11/29 06:38:27;;;;;;;40.67;11.82;;;8.10;99.90;;;;;;5094920;28;20122;-85
2022/11/29 06:40:54;;;;;;;65.95;12.93;;;8.10;99.90;;;;;;5103702;28;20045;-85
2022/11/29 06:43:20;;;;;;;72.80;11.98;;;8.10;99.90;;;;;;5069739;28;20040;-85
2022/11/29 06:45:59;;;;;;;76.95;11.85;;;8.00;99.90;;;;;;5093514;28;20039;-85
2022/11/29 06:48:28;;;;;;;55.92;11.77;;;8.00;99.90;;;;;;5110660;28;20035;-85
2022/11/29 06:51:26;;;;;;;61.85;12.00;;;8.00;99.90;;;;;;5103444;28;20043;-85
2022/11/29 06:54:32;;;;;;;60.75;11.02;;;8.00;99.90;;;;;;5036766;28;20056;-85
2022/11/29 06:57:19;;;;;;;59.58;10.73;;;8.00;99.90;;;;;;5072448;28;20080;-85
2022/11/29 06:59:50;;;;;;;60.60;11.88;;;8.00;99.90;;;;;;5105661;28;20053;-86
2022/11/29 07:02:44;;;;;;;61.42;12.15;;;8.00;99.90;;;;;;5092276;28;20071;-85
2022/11/29 07:05:29;;;;;;;50.20;10.77;;;8.00;99.90;;;;;;5091738;28;20043;-85
2022/11/29 07:07:59;;;;;;;50.40;10.88;;;8.00;99.90;;;;;;5109712;28;20028;-85
2022/11/29 07:10:27;;;;;;;55.05;11.13;;;7.90;99.90;;;;;;5108084;28;20035;-85
2022/11/29 07:12:53;;;;;;;52.72;11.88;;;7.90;99.90;;;;;;5109644;28;20088;-85
2022/11/29 07:15:21;;;;;;;40.42;12.00;;;7.90;99.90;;;;;;5091286;28;20122;-85
2022/11/29 07:18:12;;;;;;;48.70;10.68;;;7.90;99.90;;;;;;5109828;28;20125;-85
2022/11/29 07:20:48;;;;;;;45.20;10.00;;;7.80;99.90;;;;;;5092815;28;20427;-85
2022/11/29 07:23:28;;;;;;;67.43;11.52;;;7.80;99.90;;;;;;5101471;28;20043;-85
2022/11/29 07:26:17;;;;;;;65.80;11.00;;;7.80;99.90;;;;;;5093178;28;20116;-85
2022/11/29 07:28:51;;;;;;;60.20;11.48;;;7.80;99.90;;;;;;5088268;28;20565;-85
2022/11/29 07:31:31;;;;;;;64.43;11.00;;;7.80;99.90;;;;;;5097731;28;20047;-85
2022/11/29 07:34:01;;;;;;;53.40;10.00;;;7.80;99.90;;;;;;5112948;28;20039;-85
2022/11/29 07:36:53;;;;;;;51.75;10.55;;;7.80;99.90;;;;;;5093505;28;20063;-85
2022/11/29 07:39:38;;;;;;;53.03;10.05;;;7.80;99.90;;;;;;5114870;27;20032;-86
2022/11/29 07:42:03;;;;;;;59.17;12.27;;;7.70;99.90;;;;;;5086171;28;20052;-85
2022/11/29 07:45:02;;;;;;;49.55;11.15;;;7.70;99.90;;;;;;5092943;28;20043;-85
2022/11/29 07:47:27;;;;;;;45.70;10.48;;;7.70;99.90;;;;;;5085455;28;20069;-85
2022/11/29 07:49:53;;;;;;;61.70;10.10;;;7.70;99.90;;;;;;5112969;28;20047;-85
2022/11/29 07:52:18;;;;;;;60.63;11.60;;;7.70;99.90;;;;;;5103972;28;20119;-85
2022/11/29 07:54:44;;;;;;;64.40;11.02;;;7.70;99.90;;;;;;5075704;28;20097;-85
2022/11/29 07:57:10;;;;;;;54.22;11.45;;;7.70;99.90;;;;;;5109449;28;20036;-85
2022/11/29 07:59:35;;;;;;;35.45;9.65;;;7.70;99.90;;;;;;5086737;28;20047;-85
2022/11/29 08:02:01;;;;;;;56.58;11.13;;;7.70;99.90;;;;;;5112719;28;20063;-84
2022/11/29 08:04:30;;;;;;;50.80;11.95;;;7.70;99.90;;;;;;5095280;28;20035;-85
2022/11/29 08:06:59;;;;;;;50.30;10.75;;;7.70;99.90;;;;;;5092980;28;20051;-85
2022/11/29 08:09:25;;;;;;;37.30;9.90;;;7.70;99.90;;;;;;5074046;28;20043;-85
2022/11/29 08:11:51;;;;;;;49.63;10.07;;;7.70;99.90;;;;;;5091038;28;20435;-85
2022/11/29 08:14:16;;;;;;;39.10;9.93;;;7.70;99.90;;;;;;5074529;28;20065;-85
2022/11/29 08:16:42;;;;;;;32.22;9.95;;;7.70;99.90;;;;;;5100393;28;20044;-85
2022/11/29 08:19:07;;;;;;;49.17;10.43;;;7.70;99.90;;;;;;5091533;28;20046;-85
2022/11/29 08:21:33;;;;;;;47.28;10.10;;;7.70;99.90;;;;;;5118522;27;20093;-85
2022/11/29 08:23:58;;;;;;;29.92;10.05;;;7.70;99.90;;;;;;5117381;27;20044;-84
2022/11/29 08:26:24;;;;;;;55.85;11.73;;;7.70;99.90;;;;;;5075360;28;20044;-85
2022/11/29 08:28:51;;;;;;;45.00;10.30;;;7.70;99.90;;;;;;5077325;28;20035;-86
2022/11/29 08:31:18;;;;;;;44.80;10.48;;;7.80;99.90;;;;;;5107617;28;20039;-85
2022/11/29 08:33:43;;;;;;;43.50;10.05;;;7.80;99.90;;;;;;5095201;28;20118;-85
2022/11/29 08:36:12;;;;;;;46.70;11.00;;;7.80;99.90;;;;;;5088059;28;20180;-84
2022/11/29 08:38:38;;;;;;;57.05;12.00;;;7.80;99.90;;;;;;5095441;28;20050;-85
2022/11/29 08:41:05;;;;;;;38.47;12.02;;;7.80;99.90;;;;;;5107658;28;20482;-85
2022/11/29 08:43:31;;;;;;;46.88;11.73;;;7.80;99.90;;;;;;5107901;28;20036;-85
2022/11/29 08:45:57;;;;;;;46.97;11.18;;;7.80;99.90;;;;;;5111587;28;20123;-86
2022/11/29 08:48:24;;;;;;;39.70;11.05;;;7.90;99.90;;;;;;5111296;28;20110;-85
2022/11/29 08:50:51;;;;;;;45.78;11.40;;;7.90;99.90;;;;;;5095011;28;20519;-85
2022/11/29 08:56:01;;;;;;;33.05;8.93;;;7.90;99.90;;;;;;5112193;28;20479;-85
2022/11/29 08:58:27;;;;;;;31.00;10.52;;;7.90;99.90;;;;;;5103521;28;20528;-86
2022/11/29 09:00:52;;;;;;;35.35;11.55;;;7.90;99.90;;;;;;5095270;28;20126;-85
2022/11/29 09:06:08;;;;;;;37.38;9.98;;;8.00;99.90;;;;;;5111965;28;20044;-85
2022/11/29 09:08:33;;;;;;;36.70;9.75;;;8.00;99.90;;;;;;5094703;28;20050;-86
2022/11/29 09:10:59;;;;;;;30.23;9.35;;;8.00;99.90;;;;;;5100664;28;20028;-85
2022/11/29 09:13:24;;;;;;;34.63;9.90;;;8.00;99.90;;;;;;5111538;28;20075;-86
2022/11/29 09:15:50;;;;;;;37.30;10.55;;;8.00;99.90;;;;;;5103949;28;20069;-85
2022/11/29 09:18:16;;;;;;;40.13;11.45;;;8.00;99.90;;;;;;5111751;28;20036;-86
2022/11/29 09:20:43;;;;;;;32.15;10.95;;;8.00;99.90;;;;;;5111462;28;20035;-85
2022/11/29 09:23:10;;;;;;;33.30;9.90;;;8.00;99.90;;;;;;5091767;28;20067;-85
2022/11/29 09:25:35;;;;;;;28.40;9.73;;;8.00;99.90;;;;;;5093773;28;20032;-85
2022/11/29 09:28:02;;;;;;;29.13;9.68;;;8.00;99.90;;;;;;5089981;28;20033;-85
2022/11/29 09:30:30;;;;;;;24.45;9.85;;;8.00;99.90;;;;;;5090371;28;20409;-85
2022/11/29 09:32:58;;;;;;;26.48;10.20;;;8.00;99.90;;;;;;5072213;28;20114;-85
2022/11/29 09:35:24;;;;;;;27.00;10.25;;;8.10;99.90;;;;;;5072195;28;20035;-85
2022/11/29 09:37:50;;;;;;;30.85;9.75;;;8.10;99.90;;;;;;5090267;28;20059;-85
2022/11/29 09:40:21;;;;;;;30.63;10.82;;;8.10;99.90;;;;;;5093979;28;20043;-85
2022/11/29 09:43:18;;;;;;;32.33;9.60;;;8.10;99.90;;;;;;5110906;28;20089;-85
2022/11/29 09:45:48;;;;;;;32.33;12.25;;;8.10;99.90;;;;;;5089626;28;20040;-85
2022/11/29 09:48:34;;;;;;;33.13;10.38;;;8.10;99.90;;;;;;5094478;28;20061;-85
2022/11/29 09:51:07;;;;;;;26.95;10.88;;;8.20;99.90;;;;;;5110008;28;20115;-85
2022/11/29 09:53:45;;;;;;;27.70;10.27;;;8.20;99.90;;;;;;5087674;28;20513;-85
2022/11/29 09:56:16;;;;;;;28.88;10.15;;;8.20;99.90;;;;;;5110558;28;20405;-85
2022/11/29 09:59:00;;;;;;;28.75;9.90;;;8.20;99.90;;;;;;5086667;28;20051;-85
2022/11/29 10:01:31;;;;;;;31.25;11.05;;;8.20;99.90;;;;;;5110933;28;20048;-85
2022/11/29 10:04:01;;;;;;;26.52;9.60;;;8.20;99.90;;;;;;5108320;28;20046;-85
2022/11/29 10:06:35;;;;;;;25.90;9.77;;;8.20;99.90;;;;;;5110568;28;20035;-85
2022/11/29 10:09:04;;;;;;;24.98;8.93;;;8.30;99.90;;;;;;5093614;28;20032;-85
2022/11/29 10:11:51;;;;;;;27.45;10.50;;;8.20;99.90;;;;;;5105949;28;20132;-85
2022/11/29 10:14:25;;;;;;;22.33;8.88;;;8.30;99.90;;;;;;5090615;28;20515;-85
2022/11/29 10:17:11;;;;;;;26.00;9.93;;;8.30;99.90;;;;;;5107010;28;20058;-85
2022/11/29 10:19:42;;;;;;;31.95;11.02;;;8.30;99.90;;;;;;5093348;28;20039;-86
2022/11/29 10:22:18;;;;;;;31.67;10.68;;;8.30;99.90;;;;;;5090183;28;20040;-85
2022/11/29 10:24:48;;;;;;;28.15;10.40;;;8.40;99.90;;;;;;5090271;28;20512;-85
2022/11/29 10:27:22;;;;;;;31.77;11.52;;;8.40;99.90;;;;;;5090011;28;20047;-85
2022/11/29 10:29:52;;;;;;;22.67;9.25;;;8.40;99.90;;;;;;5089270;28;20062;-85
2022/11/29 10:32:20;;;;;;;28.35;11.00;;;8.50;99.90;;;;;;5085635;28;20573;-85
2022/11/29 10:34:47;;;;;;;27.75;10.27;;;8.50;99.90;;;;;;5090065;28;20040;-85
2022/11/29 10:37:17;;;;;;;26.38;10.10;;;8.50;99.90;;;;;;5086784;28;20040;-85
2022/11/29 10:39:45;;;;;;;24.90;10.00;;;8.50;99.90;;;;;;5088941;28;20051;-85
2022/11/29 10:45:27;;;;;;;29.23;9.02;;;8.60;99.90;;;;;;5091854;28;20075;-85
2022/11/29 10:47:56;;;;;;;27.63;9.13;;;8.60;99.90;;;;;;5069111;28;20391;-85
2022/11/29 10:50:28;;;;;;;32.13;9.77;;;8.60;99.90;;;;;;5073145;28;20071;-85
2022/11/29 10:52:58;;;;;;;23.17;8.93;;;8.60;99.90;;;;;;5071940;28;20040;-85
2022/11/29 10:55:24;;;;;;;21.73;8.73;;;8.70;99.90;;;;;;5091505;28;20051;-85
2022/11/29 10:58:11;;;;;;;20.02;8.73;;;8.60;99.90;;;;;;5087114;28;20035;-85
2022/11/29 11:01:05;;;;;;;21.08;9.05;;;8.70;99.90;;;;;;5103355;28;20654;-85
2022/11/29 11:03:41;;;;;;;23.73;8.88;;;8.70;99.90;;;;;;5091895;28;20563;-85
2022/11/29 11:06:20;;;;;;;19.90;8.57;;;8.70;99.90;;;;;;5072609;28;20557;-85
2022/11/29 11:09:11;;;;;;;21.00;9.13;;;8.70;99.90;;;;;;5107200;28;20031;-85
2022/11/29 11:11:38;;;;;;;20.23;9.05;;;8.70;99.90;;;;;;5108918;28;20515;-85
2022/11/29 11:14:27;;;;;;;20.92;8.32;;;8.80;99.90;;;;;;5108749;28;20047;-85
2022/11/29 11:16:53;;;;;;;21.95;8.85;;;8.80;99.90;;;;;;5109409;28;20044;-85
2022/11/29 11:19:28;;;;;;;22.08;8.95;;;8.80;99.90;;;;;;5108611;28;20043;-85
2022/11/29 11:21:56;;;;;;;25.23;9.18;;;8.80;99.90;;;;;;5092237;28;20043;-85
2022/11/29 11:24:29;;;;;;;19.25;8.95;;;8.80;99.90;;;;;;5108390;28;20408;-85
2022/11/29 11:26:55;;;;;;;22.58;8.07;;;8.80;99.90;;;;;;5108593;28;20078;-85
2022/11/29 11:29:30;;;;;;;20.08;7.63;;;8.90;99.90;;;;;;5109424;28;20114;-85
2022/11/29 11:31:58;;;;;;;25.50;8.25;;;8.90;99.90;;;;;;5103088;28;20645;-85
2022/11/29 11:34:26;;;;;;;21.63;7.93;;;8.90;99.90;;;;;;5071963;28;20512;-85
2022/11/29 11:37:11;;;;;;;19.95;8.07;;;8.90;99.90;;;;;;5087496;28;20033;-85
2022/11/29 11:39:37;;;;;;;19.90;7.90;;;8.90;99.90;;;;;;5068834;28;20080;-85
2022/11/29 11:44:51;;;;;;;21.05;7.13;;;9.00;99.90;;;;;;5120315;27;20048;-85
2022/11/29 11:47:28;;;;;;;17.95;7.32;;;9.00;99.90;;;;;;5088780;28;20044;-84
2022/11/29 11:50:03;;;;;;;19.38;7.70;;;9.00;99.90;;;;;;5104614;28;20112;-85
2022/11/29 11:52:51;;;;;;;18.75;7.65;;;9.00;99.90;;;;;;5091007;28;20128;-85
2022/11/29 11:55:43;;;;;;;13.68;6.72;;;9.10;99.90;;;;;;5109154;28;20036;-84
2022/11/29 11:58:11;;;;;;;14.32;6.47;;;9.10;99.90;;;;;;5091945;28;20036;-85
2022/11/29 12:00:42;;;;;;;17.35;7.05;;;9.10;99.90;;;;;;5090713;28;20044;-85
2022/11/29 12:03:29;;;;;;;17.52;7.10;;;9.10;99.90;;;;;;5087854;28;20067;-85
2022/11/29 12:06:20;;;;;;;16.08;6.90;;;9.10;99.90;;;;;;5113028;28;20032;-84
2022/11/29 12:08:47;;;;;;;15.32;6.65;;;9.10;99.90;;;;;;5046514;28;20473;-84
2022/11/29 12:11:16;;;;;;;14.63;6.60;;;9.10;99.90;;;;;;5096040;28;20144;-84
2022/11/29 12:13:47;;;;;;;18.00;6.30;;;9.10;99.90;;;;;;5071555;28;20435;-85
2022/11/29 12:16:26;;;;;;;19.05;6.47;;;9.10;99.90;;;;;;5090871;28;20071;-84
2022/11/29 12:18:59;;;;;;;13.88;6.32;;;9.10;99.90;;;;;;5117335;27;20044;-85
2022/11/29 12:21:30;;;;;;;13.93;5.97;;;9.10;99.90;;;;;;5081979;28;20033;-85
2022/11/29 12:24:03;;;;;;;14.63;6.47;;;9.10;99.90;;;;;;5093947;28;20055;-85
2022/11/29 12:26:37;;;;;;;14.65;6.18;;;9.10;99.90;;;;;;5072665;28;20035;-85
2022/11/29 12:29:08;;;;;;;13.50;6.10;;;9.10;99.90;;;;;;5091308;28;20047;-85
2022/11/29 12:31:43;;;;;;;18.00;5.80;;;9.10;99.90;;;;;;5092717;28;20485;-85
2022/11/29 12:34:51;;;;;;;18.58;6.32;;;9.10;99.90;;;;;;5089868;28;20126;-84
2022/11/29 12:37:23;;;;;;;17.23;6.25;;;9.10;99.90;;;;;;5033821;28;20439;-84
2022/11/29 12:40:18;;;;;;;19.83;6.10;;;9.10;99.90;;;;;;5022820;28;20049;-85
2022/11/29 12:43:22;;;;;;;18.63;6.22;;;9.10;99.90;;;;;;5032811;28;20647;-84
2022/11/29 12:46:11;;;;;;;17.05;6.20;;;9.20;99.90;;;;;;5039629;28;20048;-84
2022/11/29 12:48:59;;;;;;;15.15;6.55;;;9.20;99.90;;;;;;5049679;28;20065;-84
2022/11/29 12:51:53;;;;;;;18.13;6.78;;;9.20;99.90;;;;;;5049772;28;20052;-84
2022/11/29 12:54:45;;;;;;;18.33;6.47;;;9.20;99.90;;;;;;5025667;28;20555;-84
2022/11/29 12:57:21;;;;;;;18.08;6.38;;;9.30;99.90;;;;;;5017256;28;20037;-84
2022/11/29 13:00:05;;;;;;;18.48;6.72;;;9.30;99.90;;;;;;5033063;28;20041;-84
2022/11/29 13:02:36;;;;;;;16.15;5.95;;;9.30;99.90;;;;;;5016787;28;20123;-84
2022/11/29 13:05:26;;;;;;;16.67;6.75;;;9.30;99.90;;;;;;5016297;28;20037;-84
2022/11/29 13:08:06;;;;;;;16.35;6.63;;;9.30;99.90;;;;;;5033051;28;20048;-84
2022/11/29 13:10:54;;;;;;;13.18;6.50;;;9.40;99.90;;;;;;5032762;28;20041;-84
2022/11/29 13:13:35;;;;;;;19.02;6.63;;;9.40;99.90;;;;;;5065163;28;20083;-84
2022/11/29 13:16:35;;;;;;;18.27;7.68;;;9.30;99.90;;;;;;5093686;28;20035;-84
2022/11/29 13:19:17;;;;;;;22.52;7.00;;;9.40;99.90;;;;;;5110727;28;20040;-84
2022/11/29 13:21:56;;;;;;;17.17;6.07;;;9.40;99.90;;;;;;5094533;28;20598;-85
2022/11/29 13:24:30;;;;;;;18.63;6.80;;;9.40;99.90;;;;;;5094163;28;20044;-85
2022/11/29 13:26:56;;;;;;;19.73;8.20;;;9.40;99.90;;;;;;5111329;28;20077;-85
2022/11/29 13:29:23;;;;;;;24.80;8.35;;;9.40;99.90;;;;;;5091207;28;20109;-84
2022/11/29 13:31:50;;;;;;;17.75;7.75;;;9.40;99.90;;;;;;5079968;28;20485;-84
2022/11/29 13:34:41;;;;;;;17.42;7.80;;;9.40;99.90;;;;;;5102186;28;20043;-84
2022/11/29 13:37:22;;;;;;;18.45;7.80;;;9.50;99.90;;;;;;5114838;27;20131;-85
2022/11/29 13:40:22;;;;;;;20.80;7.88;;;9.40;99.90;;;;;;5103656;28;20076;-85
2022/11/29 13:43:14;;;;;;;20.50;7.63;;;9.50;99.90;;;;;;5110774;28;20411;-85